sensor_id;sensor_type;location;lat;lon;timestamp;P1;durP1;ratioP1;P2;durP2;ratioP2
49578;SDS011;35483;50.828;3.228;2022-12-28T00:01:26;6.57;;;5.57;;
49578;SDS011;35483;50.828;3.228;2022-12-28T00:03:53;8.50;;;6.05;;
49578;SDS011;35483;50.828;3.228;2022-12-28T00:06:20;6.03;;;5.40;;
49578;SDS011;35483;50.828;3.228;2022-12-28T00:08:47;7.55;;;6.15;;
49578;SDS011;35483;50.828;3.228;2022-12-28T00:11:16;8.07;;;6.18;;
49578;SDS011;35483;50.828;3.228;2022-12-28T00:13:43;7.95;;;5.63;;
49578;SDS011;35483;50.828;3.228;2022-12-28T00:16:12;8.63;;;6.15;;
49578;SDS011;35483;50.828;3.228;2022-12-28T00:18:53;6.97;;;5.70;;
49578;SDS011;35483;50.828;3.228;2022-12-28T00:21:19;7.45;;;5.20;;
49578;SDS011;35483;50.828;3.228;2022-12-28T00:23:52;7.07;;;5.57;;
49578;SDS011;35483;50.828;3.228;2022-12-28T00:26:20;7.88;;;5.95;;
49578;SDS011;35483;50.828;3.228;2022-12-28T00:28:46;10.73;;;5.78;;
49578;SDS011;35483;50.828;3.228;2022-12-28T00:31:12;7.28;;;5.90;;
49578;SDS011;35483;50.828;3.228;2022-12-28T00:33:37;9.57;;;5.85;;
49578;SDS011;35483;50.828;3.228;2022-12-28T00:36:03;8.02;;;5.63;;
49578;SDS011;35483;50.828;3.228;2022-12-28T00:38:30;5.95;;;5.35;;
49578;SDS011;35483;50.828;3.228;2022-12-28T00:40:56;6.93;;;5.43;;
49578;SDS011;35483;50.828;3.228;2022-12-28T00:43:22;6.53;;;5.18;;
49578;SDS011;35483;50.828;3.228;2022-12-28T00:45:48;6.43;;;5.20;;
49578;SDS011;35483;50.828;3.228;2022-12-28T00:48:14;8.05;;;6.07;;
49578;SDS011;35483;50.828;3.228;2022-12-28T00:50:40;10.50;;;5.93;;
49578;SDS011;35483;50.828;3.228;2022-12-28T00:53:06;6.47;;;5.78;;
49578;SDS011;35483;50.828;3.228;2022-12-28T00:55:33;8.95;;;5.70;;
49578;SDS011;35483;50.828;3.228;2022-12-28T00:57:59;8.60;;;5.53;;
49578;SDS011;35483;50.828;3.228;2022-12-28T01:00:25;5.68;;;5.13;;
49578;SDS011;35483;50.828;3.228;2022-12-28T01:02:51;6.75;;;5.22;;
49578;SDS011;35483;50.828;3.228;2022-12-28T01:05:17;8.88;;;5.57;;
49578;SDS011;35483;50.828;3.228;2022-12-28T01:07:43;5.95;;;5.35;;
49578;SDS011;35483;50.828;3.228;2022-12-28T01:10:09;6.88;;;4.95;;
49578;SDS011;35483;50.828;3.228;2022-12-28T01:12:35;7.13;;;4.90;;
49578;SDS011;35483;50.828;3.228;2022-12-28T01:15:02;6.13;;;4.55;;
49578;SDS011;35483;50.828;3.228;2022-12-28T01:17:29;6.70;;;4.82;;
49578;SDS011;35483;50.828;3.228;2022-12-28T01:19:55;4.63;;;4.00;;
49578;SDS011;35483;50.828;3.228;2022-12-28T01:22:20;4.90;;;3.97;;
49578;SDS011;35483;50.828;3.228;2022-12-28T01:24:46;7.53;;;4.70;;
49578;SDS011;35483;50.828;3.228;2022-12-28T01:27:12;8.68;;;4.68;;
49578;SDS011;35483;50.828;3.228;2022-12-28T01:29:38;6.70;;;4.85;;
49578;SDS011;35483;50.828;3.228;2022-12-28T01:32:04;5.78;;;4.63;;
49578;SDS011;35483;50.828;3.228;2022-12-28T01:34:29;5.95;;;4.55;;
49578;SDS011;35483;50.828;3.228;2022-12-28T01:36:55;5.35;;;3.88;;
49578;SDS011;35483;50.828;3.228;2022-12-28T01:39:21;5.32;;;4.00;;
49578;SDS011;35483;50.828;3.228;2022-12-28T01:41:46;5.13;;;4.32;;
49578;SDS011;35483;50.828;3.228;2022-12-28T01:46:42;6.05;;;4.30;;
49578;SDS011;35483;50.828;3.228;2022-12-28T01:49:20;6.45;;;4.30;;
49578;SDS011;35483;50.828;3.228;2022-12-28T01:51:59;5.90;;;3.85;;
49578;SDS011;35483;50.828;3.228;2022-12-28T01:54:50;6.88;;;4.03;;
49578;SDS011;35483;50.828;3.228;2022-12-28T01:57:30;4.60;;;4.10;;
49578;SDS011;35483;50.828;3.228;2022-12-28T02:00:05;8.00;;;4.28;;
49578;SDS011;35483;50.828;3.228;2022-12-28T02:02:35;5.28;;;4.18;;
49578;SDS011;35483;50.828;3.228;2022-12-28T02:05:01;5.93;;;4.70;;
49578;SDS011;35483;50.828;3.228;2022-12-28T02:10:02;4.53;;;4.05;;
49578;SDS011;35483;50.828;3.228;2022-12-28T02:12:28;6.90;;;4.20;;
49578;SDS011;35483;50.828;3.228;2022-12-28T02:14:55;4.10;;;3.70;;
49578;SDS011;35483;50.828;3.228;2022-12-28T02:17:21;4.88;;;3.85;;
49578;SDS011;35483;50.828;3.228;2022-12-28T02:19:47;3.60;;;3.30;;
49578;SDS011;35483;50.828;3.228;2022-12-28T02:22:23;6.70;;;3.65;;
49578;SDS011;35483;50.828;3.228;2022-12-28T02:27:48;3.53;;;3.22;;
49578;SDS011;35483;50.828;3.228;2022-12-28T02:30:44;4.28;;;3.08;;
49578;SDS011;35483;50.828;3.228;2022-12-28T02:33:22;6.07;;;3.75;;
49578;SDS011;35483;50.828;3.228;2022-12-28T02:41:00;2.92;;;2.65;;
49578;SDS011;35483;50.828;3.228;2022-12-28T02:43:31;6.30;;;3.47;;
49578;SDS011;35483;50.828;3.228;2022-12-28T02:46:07;5.47;;;3.42;;
49578;SDS011;35483;50.828;3.228;2022-12-28T02:48:56;3.80;;;2.75;;
49578;SDS011;35483;50.828;3.228;2022-12-28T02:55:01;5.85;;;3.90;;
49578;SDS011;35483;50.828;3.228;2022-12-28T03:10:04;4.20;;;2.45;;
49578;SDS011;35483;50.828;3.228;2022-12-28T03:12:49;4.47;;;2.88;;
49578;SDS011;35483;50.828;3.228;2022-12-28T03:15:28;4.70;;;2.95;;
49578;SDS011;35483;50.828;3.228;2022-12-28T03:18:09;4.75;;;2.33;;
49578;SDS011;35483;50.828;3.228;2022-12-28T03:20:58;3.33;;;2.55;;
49578;SDS011;35483;50.828;3.228;2022-12-28T03:23:47;2.85;;;2.55;;
49578;SDS011;35483;50.828;3.228;2022-12-28T03:26:34;4.72;;;2.65;;
49578;SDS011;35483;50.828;3.228;2022-12-28T03:29:22;4.22;;;2.60;;
49578;SDS011;35483;50.828;3.228;2022-12-28T03:32:07;7.18;;;3.25;;
49578;SDS011;35483;50.828;3.228;2022-12-28T03:34:35;4.00;;;2.47;;
49578;SDS011;35483;50.828;3.228;2022-12-28T03:37:10;5.03;;;2.40;;
49578;SDS011;35483;50.828;3.228;2022-12-28T03:39:50;3.13;;;2.42;;
49578;SDS011;35483;50.828;3.228;2022-12-28T03:47:38;4.97;;;2.70;;
49578;SDS011;35483;50.828;3.228;2022-12-28T03:50:07;3.72;;;2.85;;
49578;SDS011;35483;50.828;3.228;2022-12-28T03:52:33;4.47;;;2.72;;
49578;SDS011;35483;50.828;3.228;2022-12-28T03:54:59;4.55;;;2.47;;
49578;SDS011;35483;50.828;3.228;2022-12-28T03:57:25;3.78;;;2.30;;
49578;SDS011;35483;50.828;3.228;2022-12-28T03:59:52;2.58;;;2.38;;
49578;SDS011;35483;50.828;3.228;2022-12-28T04:02:18;2.83;;;2.40;;
49578;SDS011;35483;50.828;3.228;2022-12-28T04:04:43;3.60;;;2.45;;
49578;SDS011;35483;50.828;3.228;2022-12-28T04:07:09;4.78;;;2.70;;
49578;SDS011;35483;50.828;3.228;2022-12-28T04:09:35;2.85;;;2.40;;
49578;SDS011;35483;50.828;3.228;2022-12-28T04:12:01;3.10;;;2.22;;
49578;SDS011;35483;50.828;3.228;2022-12-28T04:14:27;5.05;;;2.40;;
49578;SDS011;35483;50.828;3.228;2022-12-28T04:16:52;4.60;;;2.70;;
49578;SDS011;35483;50.828;3.228;2022-12-28T04:19:18;2.50;;;2.25;;
49578;SDS011;35483;50.828;3.228;2022-12-28T04:21:44;3.63;;;2.22;;
49578;SDS011;35483;50.828;3.228;2022-12-28T04:24:09;3.10;;;1.90;;
49578;SDS011;35483;50.828;3.228;2022-12-28T04:26:35;4.32;;;2.08;;
49578;SDS011;35483;50.828;3.228;2022-12-28T04:29:01;4.38;;;2.20;;
49578;SDS011;35483;50.828;3.228;2022-12-28T04:31:27;2.28;;;2.08;;
49578;SDS011;35483;50.828;3.228;2022-12-28T04:33:58;4.25;;;2.10;;
49578;SDS011;35483;50.828;3.228;2022-12-28T04:36:24;3.10;;;2.20;;
49578;SDS011;35483;50.828;3.228;2022-12-28T04:38:50;6.60;;;2.25;;
49578;SDS011;35483;50.828;3.228;2022-12-28T04:41:16;4.20;;;2.35;;
49578;SDS011;35483;50.828;3.228;2022-12-28T04:43:42;5.13;;;2.63;;
49578;SDS011;35483;50.828;3.228;2022-12-28T04:46:12;2.30;;;2.10;;
49578;SDS011;35483;50.828;3.228;2022-12-28T04:48:39;3.25;;;2.30;;
49578;SDS011;35483;50.828;3.228;2022-12-28T04:51:15;3.35;;;2.28;;
49578;SDS011;35483;50.828;3.228;2022-12-28T04:53:45;3.65;;;2.08;;
49578;SDS011;35483;50.828;3.228;2022-12-28T04:56:11;2.72;;;2.40;;
49578;SDS011;35483;50.828;3.228;2022-12-28T04:58:38;3.08;;;2.00;;
49578;SDS011;35483;50.828;3.228;2022-12-28T05:01:05;3.80;;;2.22;;
49578;SDS011;35483;50.828;3.228;2022-12-28T05:03:34;3.88;;;2.30;;
49578;SDS011;35483;50.828;3.228;2022-12-28T05:06:06;3.30;;;2.10;;
49578;SDS011;35483;50.828;3.228;2022-12-28T05:08:34;2.35;;;2.15;;
49578;SDS011;35483;50.828;3.228;2022-12-28T05:11:01;3.05;;;2.20;;
49578;SDS011;35483;50.828;3.228;2022-12-28T05:16:03;4.25;;;2.38;;
49578;SDS011;35483;50.828;3.228;2022-12-28T05:18:30;4.28;;;2.83;;
49578;SDS011;35483;50.828;3.228;2022-12-28T05:20:58;3.47;;;2.08;;
49578;SDS011;35483;50.828;3.228;2022-12-28T05:23:28;3.42;;;2.65;;
49578;SDS011;35483;50.828;3.228;2022-12-28T05:25:56;4.95;;;2.33;;
49578;SDS011;35483;50.828;3.228;2022-12-28T05:28:22;4.20;;;2.85;;
49578;SDS011;35483;50.828;3.228;2022-12-28T05:30:48;3.42;;;1.95;;
49578;SDS011;35483;50.828;3.228;2022-12-28T05:33:14;5.68;;;2.45;;
49578;SDS011;35483;50.828;3.228;2022-12-28T05:35:42;4.15;;;2.35;;
49578;SDS011;35483;50.828;3.228;2022-12-28T05:38:08;6.05;;;2.15;;
49578;SDS011;35483;50.828;3.228;2022-12-28T05:40:33;4.03;;;2.35;;
49578;SDS011;35483;50.828;3.228;2022-12-28T05:42:59;4.03;;;2.90;;
49578;SDS011;35483;50.828;3.228;2022-12-28T05:45:25;3.30;;;1.98;;
49578;SDS011;35483;50.828;3.228;2022-12-28T05:47:55;3.50;;;2.28;;
49578;SDS011;35483;50.828;3.228;2022-12-28T05:50:20;5.75;;;3.03;;
49578;SDS011;35483;50.828;3.228;2022-12-28T05:52:46;5.28;;;2.63;;
49578;SDS011;35483;50.828;3.228;2022-12-28T05:55:12;3.25;;;2.03;;
49578;SDS011;35483;50.828;3.228;2022-12-28T05:57:37;4.10;;;2.10;;
49578;SDS011;35483;50.828;3.228;2022-12-28T06:00:03;6.22;;;2.40;;
49578;SDS011;35483;50.828;3.228;2022-12-28T06:02:29;4.93;;;2.42;;
49578;SDS011;35483;50.828;3.228;2022-12-28T06:04:55;4.15;;;2.40;;
49578;SDS011;35483;50.828;3.228;2022-12-28T06:07:21;3.70;;;1.90;;
49578;SDS011;35483;50.828;3.228;2022-12-28T06:09:47;6.30;;;2.20;;
49578;SDS011;35483;50.828;3.228;2022-12-28T06:12:12;3.22;;;1.77;;
49578;SDS011;35483;50.828;3.228;2022-12-28T06:14:38;3.95;;;2.58;;
49578;SDS011;35483;50.828;3.228;2022-12-28T06:17:04;4.85;;;2.20;;
49578;SDS011;35483;50.828;3.228;2022-12-28T06:19:30;3.28;;;1.77;;
49578;SDS011;35483;50.828;3.228;2022-12-28T06:21:56;3.65;;;2.08;;
49578;SDS011;35483;50.828;3.228;2022-12-28T06:24:22;5.15;;;2.17;;
49578;SDS011;35483;50.828;3.228;2022-12-28T06:26:48;5.68;;;2.47;;
49578;SDS011;35483;50.828;3.228;2022-12-28T06:29:14;5.15;;;3.22;;
49578;SDS011;35483;50.828;3.228;2022-12-28T06:31:42;4.50;;;2.70;;
49578;SDS011;35483;50.828;3.228;2022-12-28T06:34:11;6.35;;;2.67;;
49578;SDS011;35483;50.828;3.228;2022-12-28T06:36:41;6.78;;;2.70;;
49578;SDS011;35483;50.828;3.228;2022-12-28T06:39:09;5.50;;;2.20;;
49578;SDS011;35483;50.828;3.228;2022-12-28T06:41:37;3.92;;;1.88;;
49578;SDS011;35483;50.828;3.228;2022-12-28T06:44:07;5.60;;;2.78;;
49578;SDS011;35483;50.828;3.228;2022-12-28T06:46:34;2.63;;;2.00;;
49578;SDS011;35483;50.828;3.228;2022-12-28T06:49:00;5.60;;;2.13;;
49578;SDS011;35483;50.828;3.228;2022-12-28T06:51:27;4.90;;;1.70;;
49578;SDS011;35483;50.828;3.228;2022-12-28T06:54:02;4.10;;;1.90;;
49578;SDS011;35483;50.828;3.228;2022-12-28T06:56:29;3.30;;;1.98;;
49578;SDS011;35483;50.828;3.228;2022-12-28T06:58:57;3.63;;;1.70;;
49578;SDS011;35483;50.828;3.228;2022-12-28T07:01:24;5.07;;;2.40;;
49578;SDS011;35483;50.828;3.228;2022-12-28T07:03:52;4.35;;;2.05;;
49578;SDS011;35483;50.828;3.228;2022-12-28T07:06:21;4.93;;;2.10;;
49578;SDS011;35483;50.828;3.228;2022-12-28T07:08:48;5.95;;;1.88;;
49578;SDS011;35483;50.828;3.228;2022-12-28T07:11:19;4.30;;;2.10;;
49578;SDS011;35483;50.828;3.228;2022-12-28T07:13:46;5.93;;;2.45;;
49578;SDS011;35483;50.828;3.228;2022-12-28T07:16:16;5.80;;;1.80;;
49578;SDS011;35483;50.828;3.228;2022-12-28T07:18:43;5.22;;;2.08;;
49578;SDS011;35483;50.828;3.228;2022-12-28T07:21:11;3.80;;;1.80;;
49578;SDS011;35483;50.828;3.228;2022-12-28T07:23:43;3.85;;;2.08;;
49578;SDS011;35483;50.828;3.228;2022-12-28T07:26:09;3.40;;;1.90;;
49578;SDS011;35483;50.828;3.228;2022-12-28T07:28:37;3.92;;;2.10;;
49578;SDS011;35483;50.828;3.228;2022-12-28T07:31:08;2.70;;;1.70;;
49578;SDS011;35483;50.828;3.228;2022-12-28T07:33:39;5.15;;;2.20;;
49578;SDS011;35483;50.828;3.228;2022-12-28T07:36:05;4.07;;;1.58;;
49578;SDS011;35483;50.828;3.228;2022-12-28T07:38:32;5.53;;;1.65;;
49578;SDS011;35483;50.828;3.228;2022-12-28T07:41:05;4.75;;;1.85;;
49578;SDS011;35483;50.828;3.228;2022-12-28T07:43:33;7.50;;;1.83;;
49578;SDS011;35483;50.828;3.228;2022-12-28T07:46:04;5.32;;;1.80;;
49578;SDS011;35483;50.828;3.228;2022-12-28T07:48:35;6.47;;;1.95;;
49578;SDS011;35483;50.828;3.228;2022-12-28T07:51:08;7.55;;;2.33;;
49578;SDS011;35483;50.828;3.228;2022-12-28T07:56:02;5.50;;;1.98;;
49578;SDS011;35483;50.828;3.228;2022-12-28T07:58:28;3.88;;;1.77;;
49578;SDS011;35483;50.828;3.228;2022-12-28T08:01:01;4.55;;;2.13;;
49578;SDS011;35483;50.828;3.228;2022-12-28T08:03:29;5.15;;;2.13;;
49578;SDS011;35483;50.828;3.228;2022-12-28T08:06:00;4.20;;;2.00;;
49578;SDS011;35483;50.828;3.228;2022-12-28T08:08:27;4.45;;;1.80;;
49578;SDS011;35483;50.828;3.228;2022-12-28T08:10:53;2.20;;;1.88;;
49578;SDS011;35483;50.828;3.228;2022-12-28T08:13:18;4.28;;;2.13;;
49578;SDS011;35483;50.828;3.228;2022-12-28T08:15:52;5.75;;;2.22;;
49578;SDS011;35483;50.828;3.228;2022-12-28T08:18:18;9.43;;;2.40;;
49578;SDS011;35483;50.828;3.228;2022-12-28T08:20:45;6.30;;;2.45;;
49578;SDS011;35483;50.828;3.228;2022-12-28T08:23:12;6.07;;;2.47;;
49578;SDS011;35483;50.828;3.228;2022-12-28T08:25:37;6.13;;;2.08;;
49578;SDS011;35483;50.828;3.228;2022-12-28T08:28:03;9.52;;;2.30;;
49578;SDS011;35483;50.828;3.228;2022-12-28T08:30:29;4.90;;;2.03;;
49578;SDS011;35483;50.828;3.228;2022-12-28T08:32:54;3.20;;;2.17;;
49578;SDS011;35483;50.828;3.228;2022-12-28T08:35:20;4.57;;;2.35;;
49578;SDS011;35483;50.828;3.228;2022-12-28T08:37:46;4.43;;;2.33;;
49578;SDS011;35483;50.828;3.228;2022-12-28T08:40:12;5.13;;;2.47;;
49578;SDS011;35483;50.828;3.228;2022-12-28T08:42:37;6.30;;;2.50;;
49578;SDS011;35483;50.828;3.228;2022-12-28T08:45:03;3.03;;;2.10;;
49578;SDS011;35483;50.828;3.228;2022-12-28T08:47:29;7.35;;;2.33;;
49578;SDS011;35483;50.828;3.228;2022-12-28T08:49:55;5.22;;;2.30;;
49578;SDS011;35483;50.828;3.228;2022-12-28T08:52:20;8.85;;;2.22;;
49578;SDS011;35483;50.828;3.228;2022-12-28T08:54:48;4.07;;;2.20;;
49578;SDS011;35483;50.828;3.228;2022-12-28T08:57:14;5.68;;;2.25;;
49578;SDS011;35483;50.828;3.228;2022-12-28T08:59:40;6.43;;;2.30;;
49578;SDS011;35483;50.828;3.228;2022-12-28T09:02:05;4.10;;;2.58;;
49578;SDS011;35483;50.828;3.228;2022-12-28T09:04:31;6.05;;;2.50;;
49578;SDS011;35483;50.828;3.228;2022-12-28T09:06:57;5.15;;;2.33;;
49578;SDS011;35483;50.828;3.228;2022-12-28T09:09:22;4.15;;;2.15;;
49578;SDS011;35483;50.828;3.228;2022-12-28T09:11:48;7.38;;;2.40;;
49578;SDS011;35483;50.828;3.228;2022-12-28T09:14:14;4.72;;;2.17;;
49578;SDS011;35483;50.828;3.228;2022-12-28T09:16:40;7.65;;;2.20;;
49578;SDS011;35483;50.828;3.228;2022-12-28T09:19:07;8.30;;;2.70;;
49578;SDS011;35483;50.828;3.228;2022-12-28T09:21:34;4.07;;;1.98;;
49578;SDS011;35483;50.828;3.228;2022-12-28T09:24:01;3.03;;;2.00;;
49578;SDS011;35483;50.828;3.228;2022-12-28T09:26:28;6.18;;;2.47;;
49578;SDS011;35483;50.828;3.228;2022-12-28T09:28:57;4.05;;;2.47;;
49578;SDS011;35483;50.828;3.228;2022-12-28T09:31:26;5.88;;;2.67;;
49578;SDS011;35483;50.828;3.228;2022-12-28T09:33:53;5.63;;;3.15;;
49578;SDS011;35483;50.828;3.228;2022-12-28T09:36:23;5.57;;;2.80;;
49578;SDS011;35483;50.828;3.228;2022-12-28T09:38:54;9.00;;;4.95;;
49578;SDS011;35483;50.828;3.228;2022-12-28T09:41:28;5.78;;;3.30;;
49578;SDS011;35483;50.828;3.228;2022-12-28T09:44:18;8.10;;;2.50;;
49578;SDS011;35483;50.828;3.228;2022-12-28T09:46:55;4.68;;;2.67;;
49578;SDS011;35483;50.828;3.228;2022-12-28T09:49:35;5.30;;;2.47;;
49578;SDS011;35483;50.828;3.228;2022-12-28T09:54:52;4.90;;;2.42;;
49578;SDS011;35483;50.828;3.228;2022-12-28T09:57:18;6.72;;;2.70;;
49578;SDS011;35483;50.828;3.228;2022-12-28T09:59:45;4.43;;;2.95;;
49578;SDS011;35483;50.828;3.228;2022-12-28T10:02:16;7.55;;;2.90;;
49578;SDS011;35483;50.828;3.228;2022-12-28T10:04:51;4.85;;;2.45;;
49578;SDS011;35483;50.828;3.228;2022-12-28T10:07:17;5.07;;;2.65;;
49578;SDS011;35483;50.828;3.228;2022-12-28T10:09:44;6.53;;;2.55;;
49578;SDS011;35483;50.828;3.228;2022-12-28T10:12:13;5.07;;;2.50;;
49578;SDS011;35483;50.828;3.228;2022-12-28T10:14:41;6.68;;;2.50;;
49578;SDS011;35483;50.828;3.228;2022-12-28T10:17:14;8.27;;;3.65;;
49578;SDS011;35483;50.828;3.228;2022-12-28T10:19:44;5.95;;;2.75;;
49578;SDS011;35483;50.828;3.228;2022-12-28T10:22:18;6.97;;;2.80;;
49578;SDS011;35483;50.828;3.228;2022-12-28T10:24:45;9.75;;;2.65;;
49578;SDS011;35483;50.828;3.228;2022-12-28T10:27:24;6.32;;;2.50;;
49578;SDS011;35483;50.828;3.228;2022-12-28T10:29:54;8.48;;;2.67;;
49578;SDS011;35483;50.828;3.228;2022-12-28T10:32:21;5.07;;;2.35;;
49578;SDS011;35483;50.828;3.228;2022-12-28T10:34:54;7.75;;;2.90;;
49578;SDS011;35483;50.828;3.228;2022-12-28T10:37:23;10.02;;;2.58;;
49578;SDS011;35483;50.828;3.228;2022-12-28T10:39:56;4.65;;;2.63;;
49578;SDS011;35483;50.828;3.228;2022-12-28T10:44:56;8.93;;;4.18;;
49578;SDS011;35483;50.828;3.228;2022-12-28T10:47:29;6.93;;;3.25;;
49578;SDS011;35483;50.828;3.228;2022-12-28T10:50:00;6.65;;;3.25;;
49578;SDS011;35483;50.828;3.228;2022-12-28T10:52:27;4.35;;;2.70;;
49578;SDS011;35483;50.828;3.228;2022-12-28T10:54:53;7.45;;;2.20;;
49578;SDS011;35483;50.828;3.228;2022-12-28T10:57:20;5.22;;;2.50;;
49578;SDS011;35483;50.828;3.228;2022-12-28T10:59:52;5.00;;;2.78;;
49578;SDS011;35483;50.828;3.228;2022-12-28T11:02:39;5.63;;;2.13;;
49578;SDS011;35483;50.828;3.228;2022-12-28T11:05:04;5.30;;;2.10;;
49578;SDS011;35483;50.828;3.228;2022-12-28T11:07:31;6.53;;;1.90;;
49578;SDS011;35483;50.828;3.228;2022-12-28T11:12:53;6.90;;;2.17;;
49578;SDS011;35483;50.828;3.228;2022-12-28T11:15:21;5.88;;;2.20;;
49578;SDS011;35483;50.828;3.228;2022-12-28T11:17:52;4.78;;;2.03;;
49578;SDS011;35483;50.828;3.228;2022-12-28T11:20:25;8.38;;;2.05;;
49578;SDS011;35483;50.828;3.228;2022-12-28T11:23:00;3.53;;;1.65;;
49578;SDS011;35483;50.828;3.228;2022-12-28T11:25:33;3.95;;;2.00;;
49578;SDS011;35483;50.828;3.228;2022-12-28T11:28:04;6.57;;;2.25;;
49578;SDS011;35483;50.828;3.228;2022-12-28T11:30:36;5.65;;;2.28;;
49578;SDS011;35483;50.828;3.228;2022-12-28T11:33:01;6.38;;;2.13;;
49578;SDS011;35483;50.828;3.228;2022-12-28T11:35:32;4.20;;;2.03;;
49578;SDS011;35483;50.828;3.228;2022-12-28T11:38:02;5.05;;;2.08;;
49578;SDS011;35483;50.828;3.228;2022-12-28T11:45:55;4.13;;;2.22;;
49578;SDS011;35483;50.828;3.228;2022-12-28T11:54:03;4.25;;;2.58;;
49578;SDS011;35483;50.828;3.228;2022-12-28T11:59:24;5.60;;;2.15;;
49578;SDS011;35483;50.828;3.228;2022-12-28T12:01:53;5.45;;;2.35;;
49578;SDS011;35483;50.828;3.228;2022-12-28T12:07:24;5.70;;;2.70;;
49578;SDS011;35483;50.828;3.228;2022-12-28T12:12:49;5.03;;;2.17;;
49578;SDS011;35483;50.828;3.228;2022-12-28T12:15:20;4.90;;;1.90;;
49578;SDS011;35483;50.828;3.228;2022-12-28T12:18:03;4.90;;;1.90;;
49578;SDS011;35483;50.828;3.228;2022-12-28T12:20:44;6.43;;;2.30;;
49578;SDS011;35483;50.828;3.228;2022-12-28T12:23:20;6.63;;;2.30;;
49578;SDS011;35483;50.828;3.228;2022-12-28T12:25:56;7.55;;;2.40;;
49578;SDS011;35483;50.828;3.228;2022-12-28T12:31:04;4.82;;;1.90;;
49578;SDS011;35483;50.828;3.228;2022-12-28T12:33:34;7.70;;;2.22;;
49578;SDS011;35483;50.828;3.228;2022-12-28T12:36:06;5.30;;;1.90;;
49578;SDS011;35483;50.828;3.228;2022-12-28T12:41:23;6.50;;;2.30;;
49578;SDS011;35483;50.828;3.228;2022-12-28T12:58:31;5.65;;;2.28;;
49578;SDS011;35483;50.828;3.228;2022-12-28T13:04:13;4.00;;;1.75;;
49578;SDS011;35483;50.828;3.228;2022-12-28T13:06:44;6.38;;;2.28;;
49578;SDS011;35483;50.828;3.228;2022-12-28T13:09:14;4.10;;;2.35;;
49578;SDS011;35483;50.828;3.228;2022-12-28T13:11:42;4.45;;;1.92;;
49578;SDS011;35483;50.828;3.228;2022-12-28T13:14:21;4.55;;;2.17;;
49578;SDS011;35483;50.828;3.228;2022-12-28T13:16:52;5.63;;;2.38;;
49578;SDS011;35483;50.828;3.228;2022-12-28T13:19:22;9.00;;;3.67;;
49578;SDS011;35483;50.828;3.228;2022-12-28T13:21:50;4.28;;;1.73;;
49578;SDS011;35483;50.828;3.228;2022-12-28T13:24:23;8.30;;;2.60;;
49578;SDS011;35483;50.828;3.228;2022-12-28T13:26:51;6.28;;;2.30;;
49578;SDS011;35483;50.828;3.228;2022-12-28T13:29:20;4.60;;;1.88;;
49578;SDS011;35483;50.828;3.228;2022-12-28T13:31:49;6.97;;;1.95;;
49578;SDS011;35483;50.828;3.228;2022-12-28T13:34:21;5.63;;;2.00;;
49578;SDS011;35483;50.828;3.228;2022-12-28T13:36:52;3.70;;;2.40;;
49578;SDS011;35483;50.828;3.228;2022-12-28T13:39:22;4.95;;;2.70;;
49578;SDS011;35483;50.828;3.228;2022-12-28T13:41:51;2.53;;;1.60;;
49578;SDS011;35483;50.828;3.228;2022-12-28T13:47:20;5.47;;;2.13;;
49578;SDS011;35483;50.828;3.228;2022-12-28T13:52:32;5.57;;;2.78;;
49578;SDS011;35483;50.828;3.228;2022-12-28T13:55:06;4.35;;;2.70;;
49578;SDS011;35483;50.828;3.228;2022-12-28T13:57:39;6.75;;;2.75;;
49578;SDS011;35483;50.828;3.228;2022-12-28T14:00:08;7.22;;;2.75;;
49578;SDS011;35483;50.828;3.228;2022-12-28T14:02:34;3.75;;;2.67;;
49578;SDS011;35483;50.828;3.228;2022-12-28T14:05:06;3.85;;;2.50;;
49578;SDS011;35483;50.828;3.228;2022-12-28T14:07:33;6.07;;;2.20;;
49578;SDS011;35483;50.828;3.228;2022-12-28T14:10:00;3.70;;;1.80;;
49578;SDS011;35483;50.828;3.228;2022-12-28T14:12:27;5.43;;;2.22;;
49578;SDS011;35483;50.828;3.228;2022-12-28T14:14:55;4.20;;;2.55;;
49578;SDS011;35483;50.828;3.228;2022-12-28T14:17:22;5.88;;;2.13;;
49578;SDS011;35483;50.828;3.228;2022-12-28T14:19:49;6.85;;;3.03;;
49578;SDS011;35483;50.828;3.228;2022-12-28T14:22:31;4.40;;;2.47;;
49578;SDS011;35483;50.828;3.228;2022-12-28T14:25:04;4.82;;;2.80;;
49578;SDS011;35483;50.828;3.228;2022-12-28T14:27:35;4.03;;;2.72;;
49578;SDS011;35483;50.828;3.228;2022-12-28T14:30:05;5.50;;;2.58;;
49578;SDS011;35483;50.828;3.228;2022-12-28T14:32:44;6.43;;;2.50;;
49578;SDS011;35483;50.828;3.228;2022-12-28T14:35:17;3.97;;;2.50;;
49578;SDS011;35483;50.828;3.228;2022-12-28T14:37:48;4.75;;;2.50;;
49578;SDS011;35483;50.828;3.228;2022-12-28T14:40:39;5.50;;;2.38;;
49578;SDS011;35483;50.828;3.228;2022-12-28T14:43:08;5.70;;;2.85;;
49578;SDS011;35483;50.828;3.228;2022-12-28T14:45:45;4.38;;;2.55;;
49578;SDS011;35483;50.828;3.228;2022-12-28T14:48:21;6.03;;;2.90;;
49578;SDS011;35483;50.828;3.228;2022-12-28T14:51:22;5.20;;;2.60;;
49578;SDS011;35483;50.828;3.228;2022-12-28T14:54:05;2.80;;;2.30;;
49578;SDS011;35483;50.828;3.228;2022-12-28T14:56:41;3.83;;;2.70;;
49578;SDS011;35483;50.828;3.228;2022-12-28T14:59:24;6.38;;;2.70;;
49578;SDS011;35483;50.828;3.228;2022-12-28T15:01:54;7.78;;;2.90;;
49578;SDS011;35483;50.828;3.228;2022-12-28T15:04:39;6.88;;;3.15;;
49578;SDS011;35483;50.828;3.228;2022-12-28T15:07:06;5.32;;;2.58;;
49578;SDS011;35483;50.828;3.228;2022-12-28T15:09:33;4.82;;;3.25;;
49578;SDS011;35483;50.828;3.228;2022-12-28T15:12:06;5.72;;;3.03;;
49578;SDS011;35483;50.828;3.228;2022-12-28T15:14:32;4.65;;;3.20;;
49578;SDS011;35483;50.828;3.228;2022-12-28T15:16:58;7.82;;;4.82;;
49578;SDS011;35483;50.828;3.228;2022-12-28T15:19:24;3.75;;;2.85;;
49578;SDS011;35483;50.828;3.228;2022-12-28T15:21:50;6.72;;;3.17;;
49578;SDS011;35483;50.828;3.228;2022-12-28T15:24:15;4.43;;;3.40;;
49578;SDS011;35483;50.828;3.228;2022-12-28T15:26:41;7.03;;;4.00;;
49578;SDS011;35483;50.828;3.228;2022-12-28T15:29:06;7.60;;;4.40;;
49578;SDS011;35483;50.828;3.228;2022-12-28T15:31:32;4.45;;;3.40;;
49578;SDS011;35483;50.828;3.228;2022-12-28T15:33:58;4.25;;;2.60;;
49578;SDS011;35483;50.828;3.228;2022-12-28T15:36:23;4.03;;;3.03;;
49578;SDS011;35483;50.828;3.228;2022-12-28T15:38:49;3.78;;;2.42;;
49578;SDS011;35483;50.828;3.228;2022-12-28T15:41:15;3.30;;;2.40;;
49578;SDS011;35483;50.828;3.228;2022-12-28T15:44:20;4.43;;;2.60;;
49578;SDS011;35483;50.828;3.228;2022-12-28T15:46:46;7.30;;;3.20;;
49578;SDS011;35483;50.828;3.228;2022-12-28T15:49:15;4.95;;;3.22;;
49578;SDS011;35483;50.828;3.228;2022-12-28T15:52:01;5.00;;;2.80;;
49578;SDS011;35483;50.828;3.228;2022-12-28T15:54:27;5.95;;;2.60;;
49578;SDS011;35483;50.828;3.228;2022-12-28T15:56:53;3.20;;;2.17;;
49578;SDS011;35483;50.828;3.228;2022-12-28T15:59:20;4.32;;;2.42;;
49578;SDS011;35483;50.828;3.228;2022-12-28T16:01:46;3.97;;;2.65;;
49578;SDS011;35483;50.828;3.228;2022-12-28T16:04:12;4.03;;;2.55;;
49578;SDS011;35483;50.828;3.228;2022-12-28T16:06:39;3.15;;;2.55;;
49578;SDS011;35483;50.828;3.228;2022-12-28T16:09:05;4.57;;;3.03;;
49578;SDS011;35483;50.828;3.228;2022-12-28T16:11:31;3.13;;;2.78;;
49578;SDS011;35483;50.828;3.228;2022-12-28T16:14:01;5.07;;;2.70;;
49578;SDS011;35483;50.828;3.228;2022-12-28T16:16:29;3.90;;;2.92;;
49578;SDS011;35483;50.828;3.228;2022-12-28T16:18:58;3.53;;;2.67;;
49578;SDS011;35483;50.828;3.228;2022-12-28T16:21:27;3.55;;;3.00;;
49578;SDS011;35483;50.828;3.228;2022-12-28T16:23:53;3.58;;;2.92;;
49578;SDS011;35483;50.828;3.228;2022-12-28T16:26:19;4.25;;;3.28;;
49578;SDS011;35483;50.828;3.228;2022-12-28T16:28:45;3.85;;;3.20;;
49578;SDS011;35483;50.828;3.228;2022-12-28T16:31:19;7.88;;;3.58;;
49578;SDS011;35483;50.828;3.228;2022-12-28T16:33:53;3.78;;;3.17;;
49578;SDS011;35483;50.828;3.228;2022-12-28T16:36:30;3.28;;;2.92;;
49578;SDS011;35483;50.828;3.228;2022-12-28T16:38:56;3.85;;;3.03;;